createdAt,value
2023-08-08T00:01:04.808Z,72.43
2023-08-08T00:04:26.428Z,71.95
2023-08-08T00:07:50.113Z,72.18
2023-08-08T00:11:14.247Z,72.65
2023-08-08T00:14:35.921Z,72.52
2023-08-08T00:17:57.559Z,72.88
2023-08-08T00:21:19.188Z,72.11
2023-08-08T00:24:40.884Z,71.51
2023-08-08T00:28:02.491Z,72.24
2023-08-08T00:31:24.191Z,72.24
2023-08-08T00:34:48.243Z,72.23
2023-08-08T00:38:12.522Z,71.80
2023-08-08T00:41:36.354Z,72.22
2023-08-08T00:45:04.878Z,72.00
2023-08-08T00:48:26.652Z,71.66
2023-08-08T00:51:51.739Z,71.32
2023-08-08T00:55:16.249Z,72.02
2023-08-08T00:58:38.217Z,71.94
2023-08-08T01:02:00.231Z,72.46
2023-08-08T01:05:22.576Z,71.88
2023-08-08T01:08:51.191Z,72.66
2023-08-08T01:12:15.323Z,72.63
2023-08-08T01:15:40.164Z,72.73
2023-08-08T01:19:05.399Z,72.87
2023-08-08T01:22:37.360Z,72.50
2023-08-08T01:25:59.877Z,72.88
2023-08-08T01:29:26.400Z,73.22
2023-08-08T01:32:50.438Z,73.20
2023-08-08T01:36:21.907Z,73.27
2023-08-08T01:39:48.344Z,73.51
2023-08-08T01:43:12.566Z,72.41
2023-08-08T01:46:39.832Z,73.13
2023-08-08T01:50:04.051Z,73.03
2023-08-08T01:53:25.840Z,72.68
2023-08-08T01:56:47.585Z,72.24
2023-08-08T02:00:09.833Z,72.73
2023-08-08T02:03:32.212Z,72.68
2023-08-08T02:06:54.013Z,73.50
2023-08-08T02:10:15.842Z,73.84
2023-08-08T02:13:40.033Z,73.45
2023-08-08T02:17:01.654Z,73.81
2023-08-08T02:20:23.260Z,73.85
2023-08-08T02:23:44.853Z,73.59
2023-08-08T02:27:08.675Z,73.16
2023-08-08T02:30:32.733Z,73.13
2023-08-08T02:33:55.917Z,73.52
2023-08-08T02:37:17.564Z,73.29
2023-08-08T02:40:41.923Z,72.82
2023-08-08T02:44:03.651Z,74.15
2023-08-08T02:47:30.073Z,74.29
2023-08-08T02:50:51.666Z,74.36
2023-08-08T02:54:15.765Z,74.30
2023-08-08T02:57:39.644Z,73.97
2023-08-08T03:01:01.478Z,74.11
2023-08-08T03:04:25.425Z,75.45
2023-08-08T03:07:47.157Z,75.43
2023-08-08T03:11:10.910Z,75.68
2023-08-08T03:14:34.960Z,74.97
2023-08-08T03:17:59.309Z,75.42
2023-08-08T03:21:23.475Z,75.71
2023-08-08T03:24:45.099Z,75.43
2023-08-08T03:28:09.109Z,75.52
2023-08-08T03:31:33.278Z,75.86
2023-08-08T03:35:00.226Z,75.50
2023-08-08T03:38:21.859Z,75.05
2023-08-08T03:41:43.970Z,75.39
2023-08-08T03:45:06.254Z,75.95
2023-08-08T03:48:30.173Z,76.23
2023-08-08T03:51:51.811Z,76.25
2023-08-08T03:55:13.525Z,75.43
2023-08-08T03:58:39.352Z,74.90
2023-08-08T04:02:03.487Z,75.68
2023-08-08T04:05:29.955Z,75.61
2023-08-08T04:08:51.633Z,75.49
2023-08-08T04:12:13.431Z,75.70
2023-08-08T04:15:35.086Z,75.31
2023-08-08T04:19:00.505Z,76.57
2023-08-08T04:22:22.175Z,75.57
2023-08-08T04:25:46.715Z,75.97
2023-08-08T04:29:08.379Z,74.82
2023-08-08T04:32:30.217Z,74.92
2023-08-08T04:35:51.951Z,74.61
2023-08-08T04:39:13.540Z,74.37
2023-08-08T04:42:35.452Z,74.61
2023-08-08T04:45:57.068Z,74.34
2023-08-08T04:49:18.858Z,73.89
2023-08-08T04:52:40.550Z,73.58
2023-08-08T04:56:02.233Z,74.57
2023-08-08T04:59:27.562Z,73.47
2023-08-08T05:02:49.403Z,73.30
2023-08-08T05:06:11.044Z,73.02
2023-08-08T05:09:35.652Z,72.86
2023-08-08T05:12:59.704Z,72.19
2023-08-08T05:16:21.689Z,71.58
2023-08-08T05:19:45.386Z,71.81
2023-08-08T05:23:07.036Z,70.15
2023-08-08T05:26:28.629Z,69.29
2023-08-08T05:29:50.277Z,68.72
2023-08-08T05:33:14.575Z,67.44
2023-08-08T05:36:38.677Z,67.19
2023-08-08T05:40:00.460Z,67.78
2023-08-08T05:43:23.080Z,67.78
2023-08-08T05:46:44.762Z,67.40
2023-08-08T05:50:08.035Z,67.48
2023-08-08T05:53:29.694Z,66.47
2023-08-08T05:56:54.339Z,67.32
2023-08-08T06:00:16.456Z,67.32
2023-08-08T06:03:41.126Z,66.70
2023-08-08T06:07:06.709Z,66.86
2023-08-08T06:10:33.994Z,65.86
2023-08-08T06:13:55.896Z,66.28
2023-08-08T06:17:17.547Z,65.20
2023-08-08T06:20:39.312Z,64.76
2023-08-08T06:24:01.064Z,64.49
2023-08-08T06:27:22.740Z,64.32
2023-08-08T06:30:46.712Z,63.89
2023-08-08T06:34:08.809Z,63.29
2023-08-08T06:37:33.046Z,63.98
2023-08-08T06:40:57.240Z,62.23
2023-08-08T06:44:19.514Z,62.45
2023-08-08T06:47:44.143Z,61.76
2023-08-08T06:51:08.132Z,61.22
2023-08-08T06:54:29.762Z,61.14
2023-08-08T06:57:51.399Z,60.73
2023-08-08T07:01:13.321Z,60.32
2023-08-08T07:04:35.012Z,61.01
2023-08-08T07:07:59.003Z,60.49
2023-08-08T07:11:26.022Z,58.73
2023-08-08T07:14:48.044Z,57.22
2023-08-08T07:18:11.853Z,58.31
2023-08-08T07:21:33.495Z,57.02
2023-08-08T07:24:55.236Z,57.23
2023-08-08T07:28:19.411Z,60.42
2023-08-08T07:31:44.514Z,56.04
2023-08-08T07:35:09.843Z,55.44
2023-08-08T07:38:31.862Z,58.67
2023-08-08T07:41:53.661Z,58.54
2023-08-08T07:45:17.859Z,58.64
2023-08-08T07:48:39.511Z,59.26
2023-08-08T07:52:03.726Z,59.12
2023-08-08T07:55:27.602Z,56.89
2023-08-08T07:58:49.437Z,57.68
2023-08-08T08:02:11.289Z,54.77
2023-08-08T08:05:36.035Z,56.62
2023-08-08T08:08:59.994Z,55.47
2023-08-08T08:12:21.694Z,55.85
2023-08-08T08:15:43.894Z,55.87
2023-08-08T08:19:05.567Z,54.92
2023-08-08T08:22:27.225Z,53.07
2023-08-08T08:25:49.870Z,53.40
2023-08-08T08:29:13.746Z,54.59
2023-08-08T08:32:36.162Z,51.20
2023-08-08T08:35:57.789Z,51.98
2023-08-08T08:39:24.645Z,49.17
2023-08-08T08:42:47.030Z,49.54
2023-08-08T08:46:14.614Z,48.11
2023-08-08T08:49:37.239Z,47.35
2023-08-08T08:53:03.652Z,48.18
2023-08-08T08:56:25.558Z,49.15
2023-08-08T08:59:47.257Z,49.71
2023-08-08T09:03:09.058Z,49.44
2023-08-08T09:06:36.473Z,48.76
2023-08-08T09:09:58.156Z,49.64
2023-08-08T09:13:19.894Z,51.79
2023-08-08T09:16:41.800Z,51.00
2023-08-08T09:20:05.135Z,49.76
2023-08-08T09:23:26.892Z,50.48
2023-08-08T09:26:48.603Z,48.46
2023-08-08T09:30:13.147Z,49.46
2023-08-08T09:33:34.797Z,46.90
2023-08-08T09:36:58.617Z,48.76
2023-08-08T09:40:22.553Z,47.90
2023-08-08T09:43:48.201Z,48.28
2023-08-08T09:47:13.948Z,45.82
2023-08-08T09:50:39.249Z,45.19
2023-08-08T09:54:04.243Z,47.76
2023-08-08T09:57:29.212Z,45.84
2023-08-08T10:00:51.632Z,46.62
2023-08-08T10:04:16.081Z,47.59
2023-08-08T10:07:40.410Z,48.21
2023-08-08T10:11:03.102Z,45.03
2023-08-08T10:14:35.995Z,44.99
2023-08-08T10:17:59.045Z,46.56
2023-08-08T10:21:24.265Z,44.94
2023-08-08T10:24:50.685Z,44.61
2023-08-08T10:31:42.059Z,45.03
2023-08-08T10:35:04.560Z,45.80
2023-08-08T10:38:27.399Z,45.03
2023-08-08T10:41:51.664Z,47.17
2023-08-08T10:45:15.351Z,44.57
2023-08-08T10:48:38.426Z,45.38
2023-08-08T10:52:04.358Z,43.87
2023-08-08T10:55:28.991Z,43.24
2023-08-08T10:58:50.985Z,42.72
2023-08-08T11:02:16.689Z,41.99
2023-08-08T11:05:39.465Z,44.72
2023-08-08T11:09:02.462Z,43.97
2023-08-08T11:12:27.583Z,44.17
2023-08-08T11:15:51.983Z,42.83
2023-08-08T11:19:14.842Z,43.61
2023-08-08T11:22:36.490Z,41.65
2023-08-08T11:29:24.864Z,41.37
2023-08-08T11:33:15.315Z,42.13
2023-08-08T11:36:36.660Z,45.25
2023-08-08T11:39:58.461Z,44.08
2023-08-08T11:43:20.819Z,41.84
2023-08-08T11:46:47.557Z,44.23
2023-08-08T11:50:16.294Z,41.58
2023-08-08T11:53:49.782Z,41.95
2023-08-08T11:57:11.526Z,45.44
2023-08-08T12:00:33.785Z,42.55
2023-08-08T12:03:56.963Z,43.88
2023-08-08T12:07:19.305Z,43.26
2023-08-08T12:10:44.405Z,45.93
2023-08-08T12:14:10.975Z,42.63
2023-08-08T12:17:32.850Z,42.55
2023-08-08T12:20:54.668Z,43.57
2023-08-08T12:24:16.379Z,42.39
2023-08-08T12:27:40.961Z,43.15
2023-08-08T12:31:02.845Z,44.53
2023-08-08T12:34:26.776Z,44.23
2023-08-08T12:37:55.490Z,39.12
2023-08-08T12:41:17.111Z,40.29
2023-08-08T12:44:38.738Z,40.61
2023-08-08T12:48:00.481Z,41.54
2023-08-08T12:51:24.689Z,41.61
2023-08-08T12:54:48.684Z,40.60
2023-08-08T12:58:10.340Z,41.02
2023-08-08T13:01:34.449Z,41.29
2023-08-08T13:04:56.169Z,41.47
2023-08-08T13:08:17.836Z,41.63
2023-08-08T13:11:42.286Z,41.89
2023-08-08T13:15:09.133Z,42.45
2023-08-08T13:18:33.201Z,42.61
2023-08-08T13:21:55.654Z,43.29
2023-08-08T13:25:19.764Z,44.08
2023-08-08T13:28:46.308Z,45.24
2023-08-08T13:32:08.075Z,45.59
2023-08-08T13:35:29.795Z,45.23
2023-08-08T13:38:55.454Z,46.30
2023-08-08T13:42:17.301Z,46.96
2023-08-08T13:45:38.990Z,46.99
2023-08-08T13:49:00.658Z,47.80
2023-08-08T13:52:22.530Z,48.74
2023-08-08T13:55:45.678Z,48.12
2023-08-08T13:59:09.619Z,48.16
2023-08-08T14:02:31.377Z,48.84
2023-08-08T14:05:55.579Z,49.34
2023-08-08T14:09:19.531Z,49.75
2023-08-08T14:12:42.689Z,50.63
2023-08-08T14:16:04.553Z,49.39
2023-08-08T14:19:26.223Z,50.69
2023-08-08T14:22:48.420Z,50.21
2023-08-08T14:26:10.066Z,49.85
2023-08-08T14:29:31.633Z,50.30
2023-08-08T14:32:56.034Z,49.54
2023-08-08T14:36:20.131Z,51.72
2023-08-08T14:39:41.769Z,50.50
2023-08-08T14:43:11.092Z,52.18
2023-08-08T14:46:35.853Z,50.30
2023-08-08T14:49:59.395Z,50.54
2023-08-08T14:53:21.449Z,50.03
2023-08-08T14:56:45.561Z,50.14
2023-08-08T15:00:10.279Z,50.39
2023-08-08T15:03:31.985Z,48.63
2023-08-08T15:06:53.752Z,49.52
2023-08-08T15:10:17.676Z,49.19
2023-08-08T15:13:39.365Z,49.65
2023-08-08T15:17:01.177Z,47.64
2023-08-08T15:20:23.041Z,48.93
2023-08-08T15:23:47.484Z,47.81
2023-08-08T15:27:09.131Z,48.12
2023-08-08T15:30:31.313Z,48.09
2023-08-08T15:33:55.716Z,48.04
2023-08-08T15:37:22.109Z,47.69
2023-08-08T15:40:43.798Z,47.83
2023-08-08T15:44:05.514Z,47.43
2023-08-08T15:47:27.200Z,47.99
2023-08-08T15:50:48.835Z,46.60
2023-08-08T15:54:10.907Z,48.15
2023-08-08T15:57:32.720Z,48.93
2023-08-08T16:00:57.705Z,47.45
2023-08-08T16:04:19.367Z,47.30
2023-08-08T16:07:41.093Z,48.52
2023-08-08T16:11:04.230Z,50.28
2023-08-08T16:14:28.579Z,48.47
2023-08-08T16:17:52.956Z,49.44
2023-08-08T16:21:17.083Z,49.14
2023-08-08T16:24:38.889Z,49.17
2023-08-08T16:28:04.265Z,49.13
2023-08-08T16:31:25.965Z,48.06
2023-08-08T16:34:50.292Z,46.33
2023-08-08T16:38:15.264Z,46.43
2023-08-08T16:41:41.760Z,45.81
2023-08-08T16:45:03.852Z,46.82
2023-08-08T16:48:27.571Z,48.66
2023-08-08T16:51:51.732Z,50.36
2023-08-08T16:55:13.787Z,50.58
2023-08-08T16:58:35.540Z,48.97
2023-08-08T17:02:00.020Z,49.09
2023-08-08T17:05:22.365Z,48.21
2023-08-08T17:08:44.020Z,50.38
2023-08-08T17:12:08.617Z,50.66
2023-08-08T17:15:30.275Z,51.35
2023-08-08T17:18:53.595Z,51.13
2023-08-08T17:22:15.306Z,51.53
2023-08-08T17:25:37.961Z,53.04
2023-08-08T17:28:59.564Z,53.73
2023-08-08T17:32:23.548Z,54.73
2023-08-08T17:35:48.386Z,56.15
2023-08-08T17:39:10.067Z,57.53
2023-08-08T17:42:31.785Z,57.59
2023-08-08T17:45:55.719Z,57.66
2023-08-08T17:49:17.445Z,58.74
2023-08-08T17:52:39.065Z,58.30
2023-08-08T17:56:01.088Z,59.44
2023-08-08T17:59:24.537Z,60.01
2023-08-08T18:02:48.365Z,60.78
2023-08-08T18:06:10.095Z,60.98
2023-08-08T18:09:32.357Z,61.76
2023-08-08T18:12:56.878Z,61.57
2023-08-08T18:16:18.588Z,62.45
2023-08-08T18:19:40.238Z,62.69
2023-08-08T18:23:02.690Z,62.82
2023-08-08T18:26:27.833Z,63.34
2023-08-08T18:29:49.602Z,63.54
2023-08-08T18:33:16.169Z,64.01
2023-08-08T18:36:37.875Z,64.29
2023-08-08T18:39:59.546Z,64.74
2023-08-08T18:43:23.494Z,65.55
2023-08-08T18:46:47.859Z,65.62
2023-08-08T18:50:09.941Z,66.99
2023-08-08T18:53:31.583Z,67.95
2023-08-08T18:56:53.721Z,68.45
2023-08-08T19:00:15.449Z,68.56
2023-08-08T19:03:37.277Z,68.81
2023-08-08T19:06:59.736Z,67.89
2023-08-08T19:10:23.820Z,67.70
2023-08-08T19:13:47.660Z,63.30
2023-08-08T19:17:09.335Z,61.50
2023-08-08T19:20:30.936Z,64.90
2023-08-08T19:23:56.289Z,64.11
2023-08-08T19:27:20.218Z,65.59
2023-08-08T19:30:41.855Z,65.30
2023-08-08T19:34:06.808Z,65.50
2023-08-08T19:37:31.880Z,66.89
2023-08-08T19:40:55.770Z,67.74
2023-08-08T19:44:17.443Z,68.46
2023-08-08T19:47:39.233Z,69.12
2023-08-08T19:51:03.423Z,68.68
2023-08-08T19:54:25.144Z,68.61
2023-08-08T19:57:47.186Z,69.29
2023-08-08T20:01:08.778Z,68.50
2023-08-08T20:04:32.633Z,68.47
2023-08-08T20:07:56.211Z,68.58
2023-08-08T20:11:20.403Z,69.04
2023-08-08T20:14:44.221Z,67.32
2023-08-08T20:18:06.031Z,66.46
2023-08-08T20:21:27.831Z,67.82
2023-08-08T20:24:49.448Z,68.79
2023-08-08T20:28:11.360Z,68.35
2023-08-08T20:31:33.095Z,67.80
2023-08-08T20:34:59.560Z,67.95
2023-08-08T20:38:21.237Z,68.71
2023-08-08T20:41:42.850Z,69.09
2023-08-08T20:45:05.326Z,69.30
2023-08-08T20:48:29.390Z,70.27
2023-08-08T20:51:53.415Z,70.55
2023-08-08T20:55:15.010Z,69.66
2023-08-08T20:58:39.161Z,70.35
2023-08-08T21:02:03.245Z,69.72
2023-08-08T21:05:24.926Z,70.06
2023-08-08T21:08:51.219Z,70.27
2023-08-08T21:12:13.007Z,70.70
2023-08-08T21:15:34.656Z,69.74
2023-08-08T21:18:56.394Z,71.39
2023-08-08T21:22:20.786Z,71.33
2023-08-08T21:25:44.773Z,71.83
2023-08-08T21:29:06.348Z,70.75
2023-08-08T21:32:32.551Z,70.24
2023-08-08T21:35:54.370Z,70.03
2023-08-08T21:39:16.016Z,70.57
2023-08-08T21:42:38.566Z,71.23
2023-08-08T21:46:00.243Z,71.61
2023-08-08T21:49:21.837Z,71.36
2023-08-08T21:52:43.527Z,71.29
2023-08-08T21:56:07.857Z,72.14
2023-08-08T21:59:29.870Z,72.32
2023-08-08T22:02:54.060Z,72.73
2023-08-08T22:06:20.526Z,72.98
2023-08-08T22:09:44.513Z,73.04
2023-08-08T22:13:11.145Z,73.32
2023-08-08T22:16:38.013Z,73.16
2023-08-08T22:19:59.688Z,73.51
2023-08-08T22:23:23.805Z,73.42
2023-08-08T22:26:45.455Z,73.72
2023-08-08T22:30:07.954Z,74.32
2023-08-08T22:33:29.632Z,74.61
2023-08-08T22:36:51.217Z,75.04
2023-08-08T22:40:16.538Z,74.29
2023-08-08T22:43:38.225Z,75.37
2023-08-08T22:47:05.031Z,75.32
2023-08-08T22:50:26.912Z,75.61
2023-08-08T22:53:51.033Z,75.49
2023-08-08T22:57:14.980Z,75.82
2023-08-08T23:00:38.923Z,75.75
2023-08-08T23:04:01.036Z,75.59
2023-08-08T23:07:22.733Z,75.85
2023-08-08T23:10:44.303Z,75.67
2023-08-08T23:14:05.951Z,75.96
2023-08-08T23:17:30.470Z,74.98
2023-08-08T23:20:52.210Z,74.84
2023-08-08T23:24:13.932Z,73.74
2023-08-08T23:27:35.557Z,74.09
2023-08-08T23:30:57.333Z,74.54
2023-08-08T23:34:19.094Z,75.36
2023-08-08T23:37:40.876Z,75.83
2023-08-08T23:41:04.634Z,75.87
2023-08-08T23:44:28.803Z,76.14
2023-08-08T23:47:52.738Z,76.33
2023-08-08T23:51:19.210Z,75.61
2023-08-08T23:54:43.162Z,75.53
2023-08-08T23:58:04.788Z,75.53
